Time;durP1;ratioP1;P1;durP2;ratioP2;P2;SDS_P1;SDS_P2;PMS_P1;PMS_P2;Temp;Humidity;BMP_temperature;BMP_pressure;BME280_temperature;BME280_humidity;BME280_pressure;Samples;Min_cycle;Max_cycle;Signal;HPM_P1;HPM_P2
2023/06/07 00:00:20;;;;;;;15.48;6.70;;;9.30;85.50;;;;;;5031534;28;20440;-64
2023/06/07 00:02:45;;;;;;;15.60;6.35;;;9.30;85.70;;;;;;5048062;28;20535;-62
2023/06/07 00:05:14;;;;;;;11.70;5.93;;;9.30;85.70;;;;;;5046174;28;20072;-64
2023/06/07 00:07:41;;;;;;;11.55;6.25;;;9.30;85.90;;;;;;5042391;28;20128;-64
2023/06/07 00:10:07;;;;;;;12.20;5.95;;;9.30;85.90;;;;;;5035512;28;20422;-64
2023/06/07 00:12:33;;;;;;;13.55;6.38;;;9.20;85.90;;;;;;5046957;28;20390;-63
2023/06/07 00:15:02;;;;;;;13.48;6.63;;;9.20;87.30;;;;;;5050298;28;20033;-62
2023/06/07 00:17:28;;;;;;;14.57;7.20;;;9.20;86.60;;;;;;5036395;28;20163;-63
2023/06/07 00:19:55;;;;;;;13.27;6.32;;;9.20;86.60;;;;;;5040662;28;20072;-63
2023/06/07 00:22:21;;;;;;;20.67;6.07;;;9.10;86.50;;;;;;5034065;28;20075;-65
2023/06/07 00:24:49;;;;;;;14.68;7.38;;;9.10;86.50;;;;;;5040277;28;20065;-65
2023/06/07 00:27:14;;;;;;;13.75;6.68;;;9.00;86.60;;;;;;5037151;28;20467;-62
2023/06/07 00:29:40;;;;;;;11.40;6.53;;;9.00;86.90;;;;;;5039507;28;20080;-62
2023/06/07 00:32:06;;;;;;;14.70;7.13;;;9.00;87.00;;;;;;5039739;28;20091;-63
2023/06/07 00:34:31;;;;;;;14.13;6.60;;;9.00;87.00;;;;;;5036642;28;20056;-63
2023/06/07 00:36:57;;;;;;;15.45;7.18;;;9.00;87.00;;;;;;5035654;28;20032;-65
2023/06/07 00:39:24;;;;;;;21.75;6.63;;;8.90;87.00;;;;;;5036147;28;20041;-63
2023/06/07 00:41:51;;;;;;;19.20;6.50;;;8.90;87.20;;;;;;5037193;28;20041;-63
2023/06/07 00:44:17;;;;;;;14.75;6.43;;;8.90;87.30;;;;;;5040357;28;20053;-62
2023/06/07 00:46:42;;;;;;;13.95;6.18;;;8.90;87.40;;;;;;5035551;28;20072;-63
2023/06/07 00:49:10;;;;;;;13.75;6.47;;;8.80;87.40;;;;;;5038264;28;20130;-62
2023/06/07 00:51:36;;;;;;;13.73;7.00;;;8.80;87.60;;;;;;5036583;28;20128;-63
2023/06/07 00:54:05;;;;;;;15.77;6.95;;;8.80;88.50;;;;;;5034408;28;20040;-64
2023/06/07 00:56:31;;;;;;;18.92;7.13;;;8.80;89.70;;;;;;5034943;28;20037;-63
2023/06/07 00:58:57;;;;;;;14.30;6.07;;;8.90;89.10;;;;;;5035034;28;20056;-62
2023/06/07 01:01:23;;;;;;;14.45;6.78;;;8.80;88.70;;;;;;5035080;28;20053;-63
2023/06/07 01:03:49;;;;;;;15.63;7.05;;;8.80;88.60;;;;;;5037896;28;20041;-62
2023/06/07 01:06:14;;;;;;;15.77;7.05;;;8.80;88.70;;;;;;5034061;28;20093;-64
2023/06/07 01:08:41;;;;;;;20.58;8.45;;;8.90;89.90;;;;;;5035864;28;20060;-62
2023/06/07 01:11:08;;;;;;;17.27;6.97;;;8.90;90.70;;;;;;5031764;28;20046;-63
2023/06/07 01:13:34;;;;;;;13.43;6.78;;;8.80;90.00;;;;;;5038309;28;20045;-64
2023/06/07 01:16:00;;;;;;;15.40;7.07;;;8.90;90.50;;;;;;5034565;28;20101;-63
2023/06/07 01:18:26;;;;;;;17.27;6.50;;;8.90;90.50;;;;;;5047029;28;20037;-64
2023/06/07 01:20:55;;;;;;;15.68;6.88;;;9.00;90.40;;;;;;5037114;28;20048;-64
2023/06/07 01:23:40;;;;;;;17.08;6.68;;;9.10;90.50;;;;;;5032174;28;20036;-62
2023/06/07 01:26:06;;;;;;;13.73;7.78;;;9.20;91.00;;;;;;5031089;28;20056;-64
2023/06/07 01:28:37;;;;;;;13.75;7.18;;;9.20;90.30;;;;;;5035043;28;20166;-63
2023/06/07 01:31:03;;;;;;;19.67;8.63;;;9.20;90.30;;;;;;5035035;28;21041;-64
2023/06/07 01:33:32;;;;;;;15.63;7.78;;;9.30;90.50;;;;;;5032028;28;20045;-63
2023/06/07 01:35:58;;;;;;;16.20;7.10;;;9.40;90.50;;;;;;5037354;28;20076;-62
2023/06/07 01:38:27;;;;;;;16.17;8.15;;;9.50;90.90;;;;;;5036500;28;20060;-63
2023/06/07 01:40:54;;;;;;;14.98;7.32;;;9.60;90.90;;;;;;5019501;28;20041;-65
2023/06/07 01:43:21;;;;;;;20.08;7.93;;;9.60;90.70;;;;;;5033962;28;20029;-63
2023/06/07 01:45:48;;;;;;;19.27;8.00;;;9.60;90.70;;;;;;5034234;28;20040;-63
2023/06/07 01:48:15;;;;;;;15.93;6.85;;;9.70;90.60;;;;;;5033448;28;20087;-62
2023/06/07 01:50:41;;;;;;;20.15;7.63;;;9.70;90.80;;;;;;5036255;28;20347;-64
2023/06/07 01:53:06;;;;;;;18.00;8.18;;;9.70;90.70;;;;;;5036079;28;20041;-62
2023/06/07 01:55:32;;;;;;;16.33;7.70;;;9.70;90.80;;;;;;5035569;28;20563;-62
2023/06/07 01:58:16;;;;;;;19.02;7.88;;;9.70;90.90;;;;;;5033616;28;20036;-62
2023/06/07 02:01:02;;;;;;;17.63;7.85;;;9.80;90.80;;;;;;5035525;28;20193;-63
2023/06/07 02:03:38;;;;;;;16.20;7.15;;;9.80;91.20;;;;;;5036531;28;20365;-62
2023/06/07 02:06:08;;;;;;;13.95;7.55;;;9.80;91.20;;;;;;5035808;28;20045;-63
2023/06/07 02:08:44;;;;;;;17.45;7.05;;;9.80;91.10;;;;;;5045132;28;20037;-62
2023/06/07 02:11:12;;;;;;;18.38;7.72;;;9.90;91.20;;;;;;5034539;28;20373;-63
2023/06/07 02:13:40;;;;;;;16.05;8.32;;;9.90;90.80;;;;;;5032014;28;20033;-63
2023/06/07 02:16:06;;;;;;;17.42;7.53;;;10.00;90.90;;;;;;5034108;28;20037;-64
2023/06/07 02:18:37;;;;;;;17.63;7.32;;;10.00;90.90;;;;;;5037448;28;20032;-63
2023/06/07 02:21:02;;;;;;;;;;;10.00;91.10;;;;;;5036196;28;20046;-63
2023/06/07 02:23:28;;;;;;;14.88;7.15;;;10.00;92.20;;;;;;5044457;28;19924;-65
2023/06/07 02:25:54;;;;;;;14.05;7.20;;;10.00;90.80;;;;;;5043737;28;20037;-64
2023/06/07 02:28:19;;;;;;;18.98;7.90;;;10.10;90.80;;;;;;5044337;28;20702;-65
2023/06/07 02:30:46;;;;;;;16.75;7.15;;;10.10;90.90;;;;;;5041206;28;20384;-63
2023/06/07 02:33:13;;;;;;;14.70;6.95;;;10.10;91.00;;;;;;5044695;28;20052;-63
2023/06/07 02:35:40;;;;;;;16.17;7.13;;;10.20;90.90;;;;;;5045919;28;20120;-65
2023/06/07 02:38:06;;;;;;;15.18;6.70;;;10.20;91.10;;;;;;5028021;28;20099;-62
2023/06/07 02:40:32;;;;;;;20.25;7.50;;;10.30;91.10;;;;;;5043031;28;21042;-64
2023/06/07 02:42:58;;;;;;;19.00;7.85;;;10.30;91.10;;;;;;5037600;28;20068;-64
2023/06/07 02:45:24;;;;;;;16.08;7.63;;;10.30;90.90;;;;;;5034800;28;20607;-62
2023/06/07 02:47:50;;;;;;;18.75;7.10;;;10.40;91.00;;;;;;5036343;28;20175;-62
2023/06/07 02:50:16;;;;;;;16.95;8.48;;;10.40;91.20;;;;;;5035536;28;20063;-64
2023/06/07 02:52:44;;;;;;;18.55;7.75;;;10.40;91.10;;;;;;5018289;28;20473;-65
2023/06/07 02:55:10;;;;;;;14.50;7.28;;;10.50;91.10;;;;;;5038104;28;20140;-65
2023/06/07 02:57:35;;;;;;;15.77;6.90;;;10.50;91.00;;;;;;5039644;28;20120;-63
2023/06/07 03:00:01;;;;;;;16.33;6.85;;;10.50;91.00;;;;;;5040958;28;20407;-65
2023/06/07 03:02:27;;;;;;;13.38;6.95;;;10.60;91.00;;;;;;5041073;28;20033;-63
2023/06/07 03:04:56;;;;;;;22.65;8.15;;;10.60;91.00;;;;;;5036434;28;20041;-62
2023/06/07 03:07:22;;;;;;;18.67;8.10;;;10.60;91.10;;;;;;5035056;28;20044;-63
2023/06/07 03:09:47;;;;;;;18.90;7.28;;;10.60;91.00;;;;;;5037797;28;20610;-65
2023/06/07 03:12:13;;;;;;;16.52;8.05;;;10.60;91.10;;;;;;5040212;28;20249;-63
2023/06/07 03:14:41;;;;;;;16.63;8.23;;;10.70;91.10;;;;;;5037689;28;20037;-63
2023/06/07 03:17:08;;;;;;;16.63;7.60;;;10.60;91.00;;;;;;5039439;28;20045;-64
2023/06/07 03:19:34;;;;;;;19.10;7.07;;;10.70;91.20;;;;;;5038974;28;20582;-62
2023/06/07 03:22:00;;;;;;;14.70;7.10;;;10.70;91.00;;;;;;5033919;28;20045;-63
2023/06/07 03:24:28;;;;;;;13.32;7.00;;;10.70;91.00;;;;;;5035882;28;20483;-63
2023/06/07 03:26:54;;;;;;;17.02;7.60;;;10.70;91.00;;;;;;5038099;28;20669;-63
2023/06/07 03:29:19;;;;;;;17.85;7.65;;;10.70;91.40;;;;;;5038136;28;20033;-63
2023/06/07 03:31:45;;;;;;;16.95;8.02;;;10.70;91.00;;;;;;5038519;28;20037;-63
2023/06/07 03:34:11;;;;;;;15.65;7.85;;;10.80;91.00;;;;;;5037109;28;20045;-62
2023/06/07 03:36:36;;;;;;;19.05;8.02;;;10.80;90.90;;;;;;5037196;28;20041;-65
2023/06/07 03:39:02;;;;;;;16.92;7.85;;;10.80;91.00;;;;;;5034323;28;20112;-64
2023/06/07 03:41:28;;;;;;;19.35;7.32;;;10.80;91.00;;;;;;5040174;28;20049;-64
2023/06/07 03:43:53;;;;;;;14.70;7.10;;;10.80;91.00;;;;;;5034826;28;20052;-65
2023/06/07 03:46:19;;;;;;;19.27;7.88;;;10.80;91.10;;;;;;5019060;28;20170;-64
2023/06/07 03:48:45;;;;;;;21.20;8.30;;;10.80;91.20;;;;;;5037851;28;20044;-65
2023/06/07 03:51:10;;;;;;;18.10;7.70;;;10.90;91.20;;;;;;5035894;28;20413;-63
2023/06/07 03:53:37;;;;;;;15.45;7.53;;;10.90;91.10;;;;;;5037958;28;20118;-65
2023/06/07 03:56:04;;;;;;;17.45;7.25;;;10.90;91.10;;;;;;5038533;28;20041;-62
2023/06/07 03:58:30;;;;;;;13.10;6.85;;;11.00;91.10;;;;;;5034816;28;20041;-63
2023/06/07 04:00:56;;;;;;;15.15;6.93;;;11.00;91.10;;;;;;5035249;28;20099;-62
2023/06/07 04:03:24;;;;;;;17.55;6.35;;;11.00;91.10;;;;;;5040264;28;20434;-63
2023/06/07 04:05:50;;;;;;;18.88;7.18;;;11.10;91.00;;;;;;5035482;28;20053;-64
2023/06/07 04:08:16;;;;;;;14.23;6.18;;;11.10;91.10;;;;;;5036119;28;20041;-65
2023/06/07 04:10:42;;;;;;;19.25;7.78;;;11.10;91.00;;;;;;5034407;28;20056;-63
2023/06/07 04:13:07;;;;;;;15.98;6.93;;;11.10;91.10;;;;;;5034495;28;20060;-65
2023/06/07 04:15:33;;;;;;;17.63;6.90;;;11.10;91.00;;;;;;5033374;28;20037;-63
2023/06/07 04:17:58;;;;;;;19.65;7.13;;;11.20;91.10;;;;;;5038422;28;20044;-64
2023/06/07 04:20:24;;;;;;;15.68;6.70;;;11.20;91.00;;;;;;5037047;28;20068;-63
2023/06/07 04:22:51;;;;;;;14.95;6.45;;;11.30;91.00;;;;;;5035435;28;20736;-63
2023/06/07 04:25:21;;;;;;;17.92;7.13;;;11.30;91.00;;;;;;5039794;28;20044;-63
2023/06/07 04:27:48;;;;;;;18.15;7.32;;;11.40;90.90;;;;;;5033234;28;20199;-63
2023/06/07 04:30:15;;;;;;;14.90;6.50;;;11.40;90.80;;;;;;5045612;28;20048;-63
2023/06/07 04:32:43;;;;;;;13.68;6.35;;;11.40;90.80;;;;;;5048547;28;20044;-63
2023/06/07 04:35:09;;;;;;;17.58;7.10;;;11.50;90.80;;;;;;5046267;28;20074;-64
2023/06/07 04:37:34;;;;;;;15.77;6.93;;;11.50;90.80;;;;;;5043762;28;20075;-63
2023/06/07 04:40:00;;;;;;;20.05;6.32;;;11.60;91.10;;;;;;5038596;28;20068;-63
2023/06/07 04:42:27;;;;;;;13.93;6.53;;;11.50;91.20;;;;;;5037436;28;20040;-63
2023/06/07 04:44:53;;;;;;;13.15;5.78;;;11.60;90.80;;;;;;5042240;28;20340;-64
2023/06/07 04:47:19;;;;;;;18.75;6.65;;;11.70;91.00;;;;;;5041293;28;20049;-63
2023/06/07 04:49:46;;;;;;;10.52;5.90;;;11.70;90.60;;;;;;5043022;28;20041;-63
2023/06/07 04:52:19;;;;;;;16.52;7.03;;;11.80;90.90;;;;;;5040322;28;20052;-63
2023/06/07 04:54:46;;;;;;;14.23;6.13;;;11.90;90.40;;;;;;5043164;28;20029;-63
2023/06/07 04:57:13;;;;;;;15.90;5.90;;;12.00;90.40;;;;;;5035542;28;20049;-63
2023/06/07 04:59:42;;;;;;;18.95;6.63;;;12.00;90.20;;;;;;5042884;28;20037;-65
2023/06/07 05:02:08;;;;;;;16.15;6.60;;;12.00;90.20;;;;;;5038182;28;20103;-63
2023/06/07 05:04:34;;;;;;;14.32;6.35;;;12.10;90.00;;;;;;5039220;28;20077;-63
2023/06/07 05:07:00;;;;;;;13.40;6.68;;;12.20;90.00;;;;;;5038660;28;20075;-63
2023/06/07 05:09:27;;;;;;;15.55;5.93;;;12.30;90.00;;;;;;5034137;28;20052;-63
2023/06/07 05:11:52;;;;;;;14.07;5.97;;;12.30;89.60;;;;;;5042616;28;20045;-65
2023/06/07 05:14:18;;;;;;;17.40;5.55;;;12.60;89.30;;;;;;5049775;28;20472;-65
2023/06/07 05:16:44;;;;;;;17.02;6.00;;;12.80;89.10;;;;;;5036329;28;20025;-63
2023/06/07 05:19:13;;;;;;;17.30;5.03;;;12.90;88.50;;;;;;5040187;28;20048;-64
2023/06/07 05:21:39;;;;;;;14.60;5.40;;;12.90;88.00;;;;;;5036631;28;20055;-64
2023/06/07 05:24:05;;;;;;;13.02;6.00;;;13.00;87.60;;;;;;5022120;28;20041;-64
2023/06/07 05:26:30;;;;;;;16.63;6.85;;;13.00;87.90;;;;;;5029566;28;20136;-63
2023/06/07 05:28:56;;;;;;;11.70;5.40;;;13.00;87.40;;;;;;5045483;28;20336;-63
2023/06/07 05:31:22;;;;;;;12.75;5.47;;;13.10;86.60;;;;;;5038619;28;20041;-65
2023/06/07 05:33:48;;;;;;;16.08;4.63;;;13.20;86.20;;;;;;5034194;28;20047;-63
2023/06/07 05:36:14;;;;;;;13.30;5.28;;;13.30;85.70;;;;;;5033542;28;20036;-64
2023/06/07 05:38:40;;;;;;;15.55;5.15;;;13.40;85.10;;;;;;5034175;28;20052;-63
2023/06/07 05:41:06;;;;;;;13.25;4.95;;;13.40;84.70;;;;;;5017889;28;20047;-63
2023/06/07 05:43:32;;;;;;;16.23;5.30;;;13.50;84.30;;;;;;5035381;28;20049;-65
2023/06/07 05:45:58;;;;;;;14.70;5.00;;;13.60;84.10;;;;;;5034800;28;20119;-64
2023/06/07 05:48:23;;;;;;;14.95;5.40;;;13.60;83.70;;;;;;5037547;28;20102;-64
2023/06/07 05:50:49;;;;;;;11.18;4.72;;;13.60;83.30;;;;;;5034371;28;20206;-64
2023/06/07 05:53:15;;;;;;;17.00;4.90;;;13.60;82.90;;;;;;5031844;28;20033;-63
2023/06/07 05:55:43;;;;;;;12.35;4.35;;;13.60;82.40;;;;;;5034648;28;20047;-64
2023/06/07 05:58:09;;;;;;;14.25;4.78;;;13.70;81.90;;;;;;5006507;28;20052;-63
2023/06/07 06:00:35;;;;;;;11.63;5.05;;;13.70;81.60;;;;;;5036433;28;20041;-64
2023/06/07 06:03:01;;;;;;;15.48;5.45;;;13.90;81.20;;;;;;5032203;28;20500;-63
2023/06/07 06:05:27;;;;;;;12.30;5.10;;;13.90;80.60;;;;;;5030576;28;20052;-64
2023/06/07 06:07:59;;;;;;;12.32;5.00;;;13.90;80.20;;;;;;5033503;28;20307;-66
2023/06/07 06:10:25;;;;;;;12.23;4.97;;;14.00;79.60;;;;;;5033717;28;20039;-63
2023/06/07 06:12:51;;;;;;;11.68;4.55;;;14.00;79.60;;;;;;5037641;28;20726;-64
2023/06/07 06:15:17;;;;;;;8.05;5.10;;;14.00;79.40;;;;;;5035851;28;20025;-63
2023/06/07 06:17:42;;;;;;;10.57;4.32;;;14.10;79.20;;;;;;5015055;28;20069;-63
2023/06/07 06:20:08;;;;;;;12.85;4.75;;;14.20;79.00;;;;;;5035271;28;20376;-64
2023/06/07 06:22:34;;;;;;;9.15;4.20;;;14.20;78.60;;;;;;5032430;28;20041;-64
2023/06/07 06:25:00;;;;;;;12.95;4.32;;;14.10;78.30;;;;;;5031535;28;20052;-66
2023/06/07 06:27:26;;;;;;;11.57;4.50;;;14.20;78.20;;;;;;5033777;28;20060;-65
2023/06/07 06:29:51;;;;;;;12.70;3.95;;;14.20;78.00;;;;;;5028893;28;20029;-65
2023/06/07 06:32:17;;;;;;;13.25;4.35;;;14.40;77.80;;;;;;5043335;28;20051;-65
2023/06/07 06:34:44;;;;;;;11.43;4.72;;;14.40;77.60;;;;;;5034815;28;20102;-62
2023/06/07 06:37:10;;;;;;;10.30;3.70;;;14.40;77.40;;;;;;5033921;28;20055;-65
2023/06/07 06:39:35;;;;;;;15.30;4.53;;;14.50;77.30;;;;;;5031907;28;20033;-64
2023/06/07 06:42:01;;;;;;;16.75;4.72;;;14.70;77.00;;;;;;5021783;28;20040;-63
2023/06/07 06:44:28;;;;;;;19.75;4.57;;;14.60;76.50;;;;;;5060958;28;20049;-64
2023/06/07 06:46:54;;;;;;;15.18;4.50;;;14.70;76.30;;;;;;5030920;28;20059;-64
2023/06/07 06:49:20;;;;;;;15.27;4.93;;;14.70;76.00;;;;;;5028887;28;20060;-62
2023/06/07 06:51:46;;;;;;;11.95;4.30;;;15.10;75.90;;;;;;5025843;28;20119;-63
2023/06/07 06:54:12;;;;;;;15.55;4.35;;;15.60;75.60;;;;;;5035158;28;20080;-65
2023/06/07 06:56:38;;;;;;;15.18;4.10;;;16.10;75.20;;;;;;5042926;28;20811;-65
2023/06/07 06:59:03;;;;;;;12.57;3.65;;;16.50;74.00;;;;;;5042827;28;20076;-65
2023/06/07 07:01:47;;;;;;;14.45;4.05;;;16.90;73.30;;;;;;5058725;28;20060;-64
2023/06/07 07:04:14;;;;;;;9.85;3.60;;;17.20;69.10;;;;;;5030980;28;20049;-65
2023/06/07 07:06:41;;;;;;;14.10;4.03;;;17.50;71.80;;;;;;5043048;28;20044;-64
2023/06/07 07:09:07;;;;;;;11.07;3.42;;;17.80;70.90;;;;;;5047553;28;20052;-64
2023/06/07 07:11:33;;;;;;;11.07;3.33;;;18.00;70.40;;;;;;5045369;28;20421;-64
2023/06/07 07:13:59;;;;;;;12.20;3.50;;;18.30;70.00;;;;;;5044749;28;20084;-65
2023/06/07 07:16:24;;;;;;;10.13;3.50;;;18.50;68.80;;;;;;5037776;28;20505;-64
2023/06/07 07:18:50;;;;;;;10.55;3.10;;;18.30;68.50;;;;;;5031689;28;20068;-64
2023/06/07 07:21:16;;;;;;;8.55;3.22;;;18.30;68.40;;;;;;5046808;28;20045;-65
2023/06/07 07:23:41;;;;;;;8.38;3.53;;;18.30;67.50;;;;;;5034038;28;20033;-64
2023/06/07 07:26:07;;;;;;;11.25;3.28;;;18.20;67.00;;;;;;5045803;28;20056;-64
2023/06/07 07:28:33;;;;;;;6.38;2.80;;;18.40;66.40;;;;;;5020759;28;20044;-65
2023/06/07 07:30:58;;;;;;;10.38;3.63;;;18.70;66.20;;;;;;5035139;28;20045;-66
2023/06/07 07:33:24;;;;;;;7.22;4.00;;;18.70;66.00;;;;;;5032019;28;20155;-64
2023/06/07 07:35:50;;;;;;;12.35;3.40;;;18.90;65.70;;;;;;5031703;28;20120;-65
2023/06/07 07:38:16;;;;;;;10.82;3.28;;;19.00;65.20;;;;;;5031234;28;20369;-65
2023/06/07 07:40:44;;;;;;;9.10;3.53;;;19.10;65.00;;;;;;5039209;28;20040;-66
2023/06/07 07:43:10;;;;;;;8.07;3.13;;;19.10;64.10;;;;;;5041126;28;20045;-63
2023/06/07 07:45:37;;;;;;;12.02;3.45;;;19.30;63.70;;;;;;5036547;28;20037;-66
2023/06/07 07:48:03;;;;;;;10.23;3.10;;;19.40;63.40;;;;;;5039068;28;20472;-65
2023/06/07 07:50:29;;;;;;;12.55;3.40;;;19.40;62.40;;;;;;5032335;28;20055;-65
2023/06/07 07:52:54;;;;;;;7.85;2.58;;;19.60;61.40;;;;;;5027924;28;20049;-65
2023/06/07 07:55:23;;;;;;;10.93;3.00;;;19.80;60.80;;;;;;5046056;28;20033;-66
2023/06/07 07:57:49;;;;;;;8.35;2.75;;;20.10;60.20;;;;;;5036541;28;20450;-66
2023/06/07 08:00:16;;;;;;;12.10;3.10;;;20.30;59.10;;;;;;5032455;28;20045;-63
2023/06/07 08:02:41;;;;;;;7.43;3.17;;;20.60;58.30;;;;;;5051203;28;20033;-64
2023/06/07 08:05:08;;;;;;;9.63;3.05;;;20.70;58.00;;;;;;5050090;28;20075;-65
2023/06/07 08:07:34;;;;;;;12.35;3.03;;;20.80;57.90;;;;;;5044449;28;20056;-65
2023/06/07 08:09:59;;;;;;;7.70;3.00;;;20.90;57.20;;;;;;5049399;28;20072;-63
2023/06/07 08:12:25;;;;;;;10.00;3.28;;;20.90;56.70;;;;;;5049753;28;20518;-64
2023/06/07 08:14:50;;;;;;;7.05;2.45;;;21.10;55.30;;;;;;5031375;28;20072;-63
2023/06/07 08:17:16;;;;;;;5.30;2.20;;;21.30;54.50;;;;;;5028946;28;20353;-63
2023/06/07 08:19:41;;;;;;;7.22;2.45;;;21.70;53.90;;;;;;5048517;28;20033;-64
2023/06/07 08:22:07;;;;;;;7.30;2.28;;;21.90;52.40;;;;;;5048522;28;20404;-63
2023/06/07 08:24:32;;;;;;;7.15;2.63;;;22.30;51.40;;;;;;5048441;28;20484;-64
2023/06/07 08:26:58;;;;;;;7.82;2.42;;;22.40;51.10;;;;;;5044446;28;20048;-63
2023/06/07 08:29:25;;;;;;;7.32;2.70;;;22.70;50.40;;;;;;5044733;28;20372;-64
2023/06/07 08:31:51;;;;;;;7.15;2.45;;;22.80;48.10;;;;;;5041771;28;20346;-64
2023/06/07 08:34:17;;;;;;;6.30;2.80;;;22.90;48.20;;;;;;5042777;28;20052;-64
2023/06/07 08:36:42;;;;;;;7.03;2.72;;;23.10;47.70;;;;;;5039236;28;20045;-65
2023/06/07 08:39:08;;;;;;;6.30;2.13;;;23.40;47.30;;;;;;5037698;28;20033;-64
2023/06/07 08:41:34;;;;;;;7.10;2.50;;;23.50;46.90;;;;;;5046928;28;20098;-64
2023/06/07 08:43:59;;;;;;;7.47;2.40;;;23.90;45.30;;;;;;5048130;28;20060;-64
2023/06/07 08:46:28;;;;;;;4.60;2.33;;;24.00;44.80;;;;;;5045596;28;20033;-65
2023/06/07 08:48:55;;;;;;;5.78;2.50;;;24.30;44.50;;;;;;5047176;28;20140;-65
2023/06/07 08:51:22;;;;;;;8.30;3.08;;;24.70;43.80;;;;;;5038266;28;20048;-65
2023/06/07 08:53:55;;;;;;;6.07;2.65;;;25.00;42.50;;;;;;5034006;28;20049;-64
2023/06/07 08:56:21;;;;;;;6.88;2.92;;;25.20;41.70;;;;;;5030465;28;20045;-67
2023/06/07 08:58:48;;;;;;;4.35;2.47;;;25.50;41.40;;;;;;5038659;28;20045;-64
2023/06/07 09:01:15;;;;;;;7.05;2.60;;;25.90;41.10;;;;;;5045162;28;20037;-65
2023/06/07 09:03:40;;;;;;;7.60;2.63;;;26.00;40.70;;;;;;5037636;28;20052;-65
2023/06/07 09:06:06;;;;;;;9.10;2.83;;;26.10;40.20;;;;;;5029757;28;20041;-66
2023/06/07 09:08:32;;;;;;;5.90;2.50;;;26.20;39.70;;;;;;5028009;28;20042;-66
2023/06/07 09:10:59;;;;;;;6.38;2.67;;;26.50;39.00;;;;;;5048384;28;20525;-65
2023/06/07 09:13:24;;;;;;;5.82;2.47;;;26.90;38.60;;;;;;5048884;28;20120;-67
2023/06/07 09:15:53;;;;;;;6.43;2.25;;;27.20;38.00;;;;;;5044186;28;20049;-65
2023/06/07 09:18:19;;;;;;;5.40;2.40;;;27.60;37.10;;;;;;5046452;28;20381;-65
2023/06/07 09:20:44;;;;;;;6.20;2.30;;;27.60;36.90;;;;;;5049478;28;20037;-66
2023/06/07 09:23:14;;;;;;;6.53;2.55;;;28.10;35.80;;;;;;5048208;28;20465;-66
2023/06/07 09:25:44;;;;;;;8.07;2.40;;;28.10;35.30;;;;;;5045630;28;20076;-66
2023/06/07 09:28:11;;;;;;;4.65;2.63;;;28.70;35.00;;;;;;5044974;28;20121;-65
2023/06/07 09:30:54;;;;;;;7.75;2.40;;;29.00;34.30;;;;;;5047592;28;20084;-68
2023/06/07 09:33:28;;;;;;;6.97;2.35;;;29.30;32.00;;;;;;5056032;28;20355;-66
2023/06/07 09:36:15;;;;;;;5.55;2.70;;;29.30;32.60;;;;;;5038800;28;20080;-66
2023/06/07 09:38:41;;;;;;;6.15;2.53;;;29.50;31.00;;;;;;5039869;28;20033;-65
2023/06/07 09:41:09;;;;;;;6.40;2.22;;;29.40;32.10;;;;;;5045124;28;20044;-65
2023/06/07 09:43:46;;;;;;;5.60;2.15;;;29.60;31.90;;;;;;5047491;28;20180;-65
2023/06/07 09:46:13;;;;;;;8.30;2.45;;;29.90;31.10;;;;;;5046268;28;20029;-66
2023/06/07 09:48:53;;;;;;;3.97;2.35;;;29.50;30.90;;;;;;5048153;28;20080;-65
2023/06/07 09:51:20;;;;;;;5.50;2.20;;;29.50;30.90;;;;;;5026148;28;20112;-65
2023/06/07 09:53:54;;;;;;;6.20;2.40;;;29.50;31.20;;;;;;5029424;28;20065;-67
2023/06/07 09:56:21;;;;;;;7.43;2.60;;;29.60;29.80;;;;;;5029407;28;20049;-66
2023/06/07 09:58:51;;;;;;;5.68;2.25;;;30.00;30.40;;;;;;5014034;28;20041;-65
2023/06/07 10:01:43;;;;;;;;;;;30.40;30.40;;;;;;5048301;28;20116;-66
2023/06/07 10:04:10;;;;;;;7.55;2.63;;;30.50;30.20;;;;;;5041285;28;19925;-64
2023/06/07 10:06:41;;;;;;;6.38;2.72;;;31.10;30.00;;;;;;5037814;28;20041;-66
2023/06/07 10:09:08;;;;;;;6.88;2.72;;;31.90;28.50;;;;;;5047614;28;20048;-65
2023/06/07 10:11:36;;;;;;;8.02;3.10;;;31.70;28.70;;;;;;5046399;28;20128;-67
2023/06/07 10:14:18;;;;;;;7.72;2.70;;;32.00;28.50;;;;;;5048226;28;20052;-66
2023/06/07 10:16:51;;;;;;;7.90;2.88;;;32.10;27.80;;;;;;5043263;28;20354;-66
2023/06/07 10:19:40;;;;;;;6.53;2.47;;;32.50;27.70;;;;;;5046671;28;20182;-66
2023/06/07 10:22:11;;;;;;;5.80;2.92;;;32.60;27.30;;;;;;5036710;28;20041;-65
2023/06/07 10:24:56;;;;;;;5.15;3.00;;;33.20;27.40;;;;;;5045684;28;20044;-65
2023/06/07 10:27:23;;;;;;;7.85;3.40;;;33.30;26.30;;;;;;5044846;28;20579;-65
2023/06/07 10:30:06;;;;;;;7.55;2.80;;;33.70;25.90;;;;;;5045150;28;20068;-66
2023/06/07 10:32:36;;;;;;;7.38;2.75;;;33.60;24.80;;;;;;5045410;28;20063;-65
2023/06/07 10:35:03;;;;;;;12.00;3.53;;;33.90;25.80;;;;;;5045501;28;20044;-66
2023/06/07 10:37:32;;;;;;;7.75;3.40;;;34.00;25.70;;;;;;5043775;28;20076;-66
2023/06/07 10:39:58;;;;;;;9.97;2.90;;;34.10;25.50;;;;;;5043354;28;20102;-65
2023/06/07 10:42:24;;;;;;;5.70;2.72;;;34.00;25.60;;;;;;5048368;28;20049;-67
2023/06/07 10:44:50;;;;;;;6.00;2.80;;;34.20;25.40;;;;;;5046085;28;20830;-65
2023/06/07 10:47:21;;;;;;;7.93;3.30;;;34.30;25.10;;;;;;5045011;28;20073;-65
2023/06/07 10:49:48;;;;;;;7.72;3.72;;;33.80;25.30;;;;;;5042964;28;20416;-68
2023/06/07 10:52:15;;;;;;;7.65;2.95;;;33.80;25.30;;;;;;5039814;28;20135;-66
2023/06/07 10:54:42;;;;;;;8.50;3.92;;;32.90;25.60;;;;;;5042717;28;20523;-66
2023/06/07 10:57:08;;;;;;;6.78;3.40;;;32.40;27.00;;;;;;5036719;28;20038;-66
2023/06/07 10:59:35;;;;;;;6.75;3.50;;;31.20;27.30;;;;;;5028511;28;20044;-65
2023/06/07 11:02:21;;;;;;;6.47;3.35;;;30.20;28.50;;;;;;5026852;28;20041;-67
2023/06/07 11:04:52;;;;;;;7.53;3.55;;;29.10;28.60;;;;;;5038075;28;20084;-66
2023/06/07 11:07:32;;;;;;;9.32;3.08;;;28.50;29.60;;;;;;5043213;28;20037;-68
2023/06/07 11:10:07;;;;;;;9.30;2.97;;;28.10;30.50;;;;;;5044428;28;20094;-67
2023/06/07 11:12:35;;;;;;;11.82;3.15;;;27.30;32.00;;;;;;5034500;28;20066;-66
2023/06/07 11:15:20;;;;;;;6.10;3.58;;;27.30;32.70;;;;;;5049604;28;20128;-65
2023/06/07 11:17:52;;;;;;;7.95;3.42;;;26.80;32.60;;;;;;5035470;28;20037;-67
2023/06/07 11:20:43;;;;;;;7.72;3.90;;;26.60;32.90;;;;;;5050887;28;20041;-65
2023/06/07 11:23:24;;;;;;;7.38;3.63;;;26.50;33.50;;;;;;5048404;28;20045;-65
2023/06/07 11:26:05;;;;;;;7.40;3.90;;;26.20;32.70;;;;;;5042781;28;20053;-67
2023/06/07 11:28:33;;;;;;;7.65;3.67;;;26.20;32.90;;;;;;5064649;28;20052;-66
2023/06/07 11:31:00;;;;;;;3.65;2.95;;;26.20;33.00;;;;;;5049087;28;20114;-65
2023/06/07 11:33:27;;;;;;;8.00;3.20;;;26.30;33.30;;;;;;5024434;28;20033;-67
2023/06/07 11:35:53;;;;;;;5.65;3.35;;;26.30;33.60;;;;;;5039521;28;20079;-66
2023/06/07 11:38:20;;;;;;;6.75;3.50;;;26.00;34.10;;;;;;5040839;28;20036;-64
2023/06/07 11:40:46;;;;;;;6.45;3.20;;;26.00;34.40;;;;;;5046997;28;20047;-66
2023/06/07 11:43:13;;;;;;;8.48;3.65;;;25.90;34.80;;;;;;5043555;28;20044;-66
2023/06/07 11:45:42;;;;;;;7.53;3.50;;;25.90;35.30;;;;;;5044964;28;20385;-65
2023/06/07 11:48:08;;;;;;;9.73;4.53;;;26.00;35.40;;;;;;5016110;28;20057;-65
2023/06/07 11:50:38;;;;;;;9.73;4.13;;;25.70;35.70;;;;;;5034576;28;20047;-64
2023/06/07 11:53:05;;;;;;;8.10;3.58;;;25.90;35.70;;;;;;5046126;28;20137;-65
2023/06/07 11:55:31;;;;;;;9.40;3.20;;;25.90;35.20;;;;;;5041556;28;20377;-66
2023/06/07 11:58:03;;;;;;;8.05;3.38;;;26.00;35.10;;;;;;5035154;28;20168;-65
2023/06/07 12:00:36;;;;;;;8.60;3.92;;;25.90;35.10;;;;;;5043308;28;20151;-65
2023/06/07 12:03:03;;;;;;;8.63;3.22;;;25.90;35.20;;;;;;5039517;28;20056;-64
2023/06/07 12:05:30;;;;;;;9.02;3.90;;;26.10;35.00;;;;;;5047186;28;20065;-65
2023/06/07 12:08:04;;;;;;;5.93;3.05;;;26.10;34.80;;;;;;5043828;28;20064;-65
2023/06/07 12:10:33;;;;;;;8.07;3.55;;;26.00;35.20;;;;;;5047090;28;20074;-66
2023/06/07 12:13:14;;;;;;;11.43;4.07;;;26.20;34.80;;;;;;5050124;28;20488;-65
2023/06/07 12:15:53;;;;;;;8.15;3.67;;;26.50;34.00;;;;;;5041758;28;20037;-67
2023/06/07 12:18:27;;;;;;;10.40;3.75;;;27.20;32.30;;;;;;5048958;28;20045;-67
2023/06/07 12:21:04;;;;;;;6.22;3.10;;;27.90;31.90;;;;;;5027455;28;20166;-67
2023/06/07 12:23:35;;;;;;;6.85;3.15;;;29.10;31.30;;;;;;5046780;28;20041;-66
2023/06/07 12:26:06;;;;;;;7.30;3.00;;;30.40;29.70;;;;;;5029585;28;20042;-66
2023/06/07 12:28:32;;;;;;;6.65;3.00;;;30.50;28.90;;;;;;5035740;28;20029;-65
2023/06/07 12:30:57;;;;;;;8.75;3.50;;;30.90;28.30;;;;;;5048829;28;20031;-66
2023/06/07 12:33:26;;;;;;;8.20;3.50;;;31.40;28.00;;;;;;5047062;28;20083;-65
2023/06/07 12:35:52;;;;;;;8.82;3.53;;;31.70;28.00;;;;;;5030256;28;20391;-65
2023/06/07 12:38:20;;;;;;;9.73;3.95;;;31.40;27.90;;;;;;5046434;28;20037;-66
2023/06/07 12:40:46;;;;;;;13.27;3.80;;;31.30;27.70;;;;;;5047423;28;20372;-65
2023/06/07 12:43:12;;;;;;;13.20;3.63;;;31.30;27.80;;;;;;5048569;28;20124;-65
2023/06/07 12:45:37;;;;;;;10.25;3.88;;;31.60;27.90;;;;;;5047806;28;20147;-65